sensor_id;sensor_type;location;lat;lon;timestamp;P1;durP1;ratioP1;P2;durP2;ratioP2
595;SDS011;19946;49.306;11.350;2022-12-07T00:01:37;364.53;;;350.83;;
595;SDS011;19946;49.306;11.350;2022-12-07T00:04:38;490.43;;;472.33;;
595;SDS011;19946;49.306;11.350;2022-12-07T00:07:39;565.03;;;544.23;;
595;SDS011;19946;49.306;11.350;2022-12-07T00:10:41;501.40;;;482.90;;
595;SDS011;19946;49.306;11.350;2022-12-07T00:13:42;397.77;;;382.67;;
595;SDS011;19946;49.306;11.350;2022-12-07T00:16:44;518.27;;;498.90;;
595;SDS011;19946;49.306;11.350;2022-12-07T00:19:57;370.87;;;356.50;;
595;SDS011;19946;49.306;11.350;2022-12-07T00:23:02;480.43;;;462.23;;
595;SDS011;19946;49.306;11.350;2022-12-07T00:26:03;492.60;;;474.17;;
595;SDS011;19946;49.306;11.350;2022-12-07T00:32:18;621.73;;;599.23;;
595;SDS011;19946;49.306;11.350;2022-12-07T00:35:19;504.07;;;485.30;;
595;SDS011;19946;49.306;11.350;2022-12-07T00:38:19;427.30;;;411.20;;
595;SDS011;19946;49.306;11.350;2022-12-07T00:41:21;481.33;;;463.53;;
595;SDS011;19946;49.306;11.350;2022-12-07T00:44:23;447.80;;;431.00;;
595;SDS011;19946;49.306;11.350;2022-12-07T00:47:25;354.30;;;340.73;;
595;SDS011;19946;49.306;11.350;2022-12-07T00:53:36;542.60;;;523.20;;
595;SDS011;19946;49.306;11.350;2022-12-07T00:56:37;536.40;;;516.60;;
595;SDS011;19946;49.306;11.350;2022-12-07T00:59:38;565.43;;;544.93;;
595;SDS011;19946;49.306;11.350;2022-12-07T01:02:38;546.37;;;526.47;;
595;SDS011;19946;49.306;11.350;2022-12-07T01:05:39;607.00;;;585.17;;
595;SDS011;19946;49.306;11.350;2022-12-07T01:08:40;635.70;;;613.07;;
595;SDS011;19946;49.306;11.350;2022-12-07T01:11:41;614.80;;;592.83;;
595;SDS011;19946;49.306;11.350;2022-12-07T01:14:41;542.57;;;523.07;;
595;SDS011;19946;49.306;11.350;2022-12-07T01:17:42;541.07;;;521.70;;
595;SDS011;19946;49.306;11.350;2022-12-07T01:20:42;367.93;;;354.20;;
595;SDS011;19946;49.306;11.350;2022-12-07T01:23:43;421.13;;;405.73;;
595;SDS011;19946;49.306;11.350;2022-12-07T01:26:45;409.80;;;394.63;;
595;SDS011;19946;49.306;11.350;2022-12-07T01:29:45;427.70;;;412.10;;
595;SDS011;19946;49.306;11.350;2022-12-07T01:32:46;390.77;;;376.37;;
595;SDS011;19946;49.306;11.350;2022-12-07T01:35:46;396.43;;;381.67;;
595;SDS011;19946;49.306;11.350;2022-12-07T01:38:47;378.73;;;364.67;;
595;SDS011;19946;49.306;11.350;2022-12-07T01:41:48;441.47;;;425.37;;
595;SDS011;19946;49.306;11.350;2022-12-07T01:48:19;374.63;;;360.23;;
595;SDS011;19946;49.306;11.350;2022-12-07T01:51:24;416.20;;;400.37;;
595;SDS011;19946;49.306;11.350;2022-12-07T01:54:26;479.53;;;461.73;;
595;SDS011;19946;49.306;11.350;2022-12-07T01:57:26;418.10;;;402.37;;
595;SDS011;19946;49.306;11.350;2022-12-07T02:00:28;556.60;;;536.37;;
595;SDS011;19946;49.306;11.350;2022-12-07T02:03:39;691.10;;;665.27;;
595;SDS011;19946;49.306;11.350;2022-12-07T02:06:42;651.80;;;628.00;;
595;SDS011;19946;49.306;11.350;2022-12-07T02:09:43;505.37;;;486.63;;
595;SDS011;19946;49.306;11.350;2022-12-07T02:12:51;467.17;;;449.77;;
595;SDS011;19946;49.306;11.350;2022-12-07T02:19:39;428.63;;;412.60;;
595;SDS011;19946;49.306;11.350;2022-12-07T02:26:29;276.50;;;266.03;;
595;SDS011;19946;49.306;11.350;2022-12-07T02:33:03;409.53;;;394.33;;
595;SDS011;19946;49.306;11.350;2022-12-07T02:36:12;445.77;;;428.87;;
595;SDS011;19946;49.306;11.350;2022-12-07T02:39:20;422.67;;;406.57;;
595;SDS011;19946;49.306;11.350;2022-12-07T02:42:34;381.80;;;367.27;;
595;SDS011;19946;49.306;11.350;2022-12-07T02:45:40;427.50;;;411.40;;
595;SDS011;19946;49.306;11.350;2022-12-07T02:48:42;351.07;;;337.97;;
595;SDS011;19946;49.306;11.350;2022-12-07T02:51:44;331.53;;;319.17;;
595;SDS011;19946;49.306;11.350;2022-12-07T02:54:46;403.87;;;388.73;;
595;SDS011;19946;49.306;11.350;2022-12-07T03:01:03;374.87;;;360.67;;
595;SDS011;19946;49.306;11.350;2022-12-07T03:08:06;261.00;;;250.70;;
595;SDS011;19946;49.306;11.350;2022-12-07T03:11:32;283.73;;;272.63;;
595;SDS011;19946;49.306;11.350;2022-12-07T03:14:39;343.00;;;329.73;;
595;SDS011;19946;49.306;11.350;2022-12-07T03:17:46;277.40;;;266.67;;
595;SDS011;19946;49.306;11.350;2022-12-07T03:20:49;261.90;;;251.70;;
595;SDS011;19946;49.306;11.350;2022-12-07T03:23:54;441.50;;;424.90;;
595;SDS011;19946;49.306;11.350;2022-12-07T03:26:59;413.90;;;398.00;;
595;SDS011;19946;49.306;11.350;2022-12-07T03:30:06;363.77;;;349.50;;
595;SDS011;19946;49.306;11.350;2022-12-07T03:33:29;471.40;;;453.10;;
595;SDS011;19946;49.306;11.350;2022-12-07T03:36:39;408.03;;;392.00;;
595;SDS011;19946;49.306;11.350;2022-12-07T03:39:47;318.10;;;305.27;;
595;SDS011;19946;49.306;11.350;2022-12-07T03:43:01;284.80;;;273.30;;
595;SDS011;19946;49.306;11.350;2022-12-07T03:49:25;357.00;;;342.57;;
595;SDS011;19946;49.306;11.350;2022-12-07T03:52:32;562.13;;;541.17;;
595;SDS011;19946;49.306;11.350;2022-12-07T03:55:40;653.47;;;629.47;;
595;SDS011;19946;49.306;11.350;2022-12-07T03:58:44;698.60;;;673.10;;
595;SDS011;19946;49.306;11.350;2022-12-07T04:01:47;642.57;;;619.47;;
595;SDS011;19946;49.306;11.350;2022-12-07T04:04:53;490.17;;;471.93;;
595;SDS011;19946;49.306;11.350;2022-12-07T04:07:53;366.10;;;351.70;;
595;SDS011;19946;49.306;11.350;2022-12-07T04:10:54;554.93;;;534.53;;
595;SDS011;19946;49.306;11.350;2022-12-07T04:13:54;638.77;;;615.93;;
595;SDS011;19946;49.306;11.350;2022-12-07T04:17:13;598.60;;;577.00;;
595;SDS011;19946;49.306;11.350;2022-12-07T04:20:14;703.97;;;678.47;;
595;SDS011;19946;49.306;11.350;2022-12-07T04:23:14;701.20;;;676.60;;
595;SDS011;19946;49.306;11.350;2022-12-07T04:26:15;698.33;;;673.30;;
595;SDS011;19946;49.306;11.350;2022-12-07T04:29:15;616.67;;;595.07;;
595;SDS011;19946;49.306;11.350;2022-12-07T04:32:16;716.70;;;690.70;;
595;SDS011;19946;49.306;11.350;2022-12-07T04:35:16;705.60;;;680.53;;
595;SDS011;19946;49.306;11.350;2022-12-07T04:38:17;726.80;;;700.47;;
595;SDS011;19946;49.306;11.350;2022-12-07T04:41:17;663.07;;;639.83;;
595;SDS011;19946;49.306;11.350;2022-12-07T04:44:18;638.57;;;616.27;;
595;SDS011;19946;49.306;11.350;2022-12-07T04:47:20;536.20;;;516.73;;
595;SDS011;19946;49.306;11.350;2022-12-07T04:50:21;384.77;;;369.90;;
595;SDS011;19946;49.306;11.350;2022-12-07T04:53:21;486.57;;;467.87;;
595;SDS011;19946;49.306;11.350;2022-12-07T04:56:22;518.90;;;499.50;;
595;SDS011;19946;49.306;11.350;2022-12-07T04:59:23;444.50;;;426.90;;
595;SDS011;19946;49.306;11.350;2022-12-07T05:02:24;535.43;;;514.83;;
595;SDS011;19946;49.306;11.350;2022-12-07T05:05:24;635.30;;;611.73;;
595;SDS011;19946;49.306;11.350;2022-12-07T05:08:25;701.80;;;675.60;;
595;SDS011;19946;49.306;11.350;2022-12-07T05:11:25;728.97;;;702.23;;
595;SDS011;19946;49.306;11.350;2022-12-07T05:14:38;722.27;;;696.47;;
595;SDS011;19946;49.306;11.350;2022-12-07T05:17:38;754.43;;;726.50;;
595;SDS011;19946;49.306;11.350;2022-12-07T05:20:39;761.97;;;733.73;;
595;SDS011;19946;49.306;11.350;2022-12-07T05:23:40;720.70;;;695.13;;
595;SDS011;19946;49.306;11.350;2022-12-07T05:26:40;744.47;;;717.37;;
595;SDS011;19946;49.306;11.350;2022-12-07T05:29:41;601.07;;;579.87;;
595;SDS011;19946;49.306;11.350;2022-12-07T05:32:41;651.93;;;628.97;;
595;SDS011;19946;49.306;11.350;2022-12-07T05:35:42;714.57;;;688.80;;
595;SDS011;19946;49.306;11.350;2022-12-07T05:38:42;608.63;;;586.77;;
595;SDS011;19946;49.306;11.350;2022-12-07T05:41:43;769.87;;;741.97;;
595;SDS011;19946;49.306;11.350;2022-12-07T05:45:02;721.13;;;695.33;;
595;SDS011;19946;49.306;11.350;2022-12-07T05:48:02;751.07;;;723.67;;
595;SDS011;19946;49.306;11.350;2022-12-07T05:51:03;764.83;;;737.13;;
595;SDS011;19946;49.306;11.350;2022-12-07T05:54:03;734.77;;;708.67;;
595;SDS011;19946;49.306;11.350;2022-12-07T05:57:04;731.93;;;705.23;;
595;SDS011;19946;49.306;11.350;2022-12-07T06:00:04;751.80;;;723.93;;
595;SDS011;19946;49.306;11.350;2022-12-07T06:03:12;694.93;;;669.93;;
595;SDS011;19946;49.306;11.350;2022-12-07T06:06:12;711.30;;;685.60;;
595;SDS011;19946;49.306;11.350;2022-12-07T06:09:13;656.97;;;633.97;;
595;SDS011;19946;49.306;11.350;2022-12-07T06:12:14;589.90;;;569.10;;
595;SDS011;19946;49.306;11.350;2022-12-07T06:15:35;540.00;;;521.33;;
595;SDS011;19946;49.306;11.350;2022-12-07T06:18:36;518.70;;;500.23;;
595;SDS011;19946;49.306;11.350;2022-12-07T06:21:37;413.03;;;398.23;;
595;SDS011;19946;49.306;11.350;2022-12-07T06:24:37;404.17;;;389.43;;
595;SDS011;19946;49.306;11.350;2022-12-07T06:27:38;404.43;;;390.13;;
595;SDS011;19946;49.306;11.350;2022-12-07T06:30:39;384.70;;;371.00;;
595;SDS011;19946;49.306;11.350;2022-12-07T06:33:39;386.23;;;372.80;;
595;SDS011;19946;49.306;11.350;2022-12-07T06:36:41;348.73;;;336.13;;
595;SDS011;19946;49.306;11.350;2022-12-07T06:39:42;349.13;;;336.60;;
595;SDS011;19946;49.306;11.350;2022-12-07T06:42:43;299.53;;;288.43;;
595;SDS011;19946;49.306;11.350;2022-12-07T06:45:43;282.07;;;271.73;;
595;SDS011;19946;49.306;11.350;2022-12-07T06:48:44;323.53;;;311.83;;
595;SDS011;19946;49.306;11.350;2022-12-07T06:51:48;290.50;;;279.80;;
595;SDS011;19946;49.306;11.350;2022-12-07T06:54:48;238.30;;;229.40;;
595;SDS011;19946;49.306;11.350;2022-12-07T06:57:49;242.93;;;233.73;;
595;SDS011;19946;49.306;11.350;2022-12-07T07:00:50;256.23;;;246.80;;
595;SDS011;19946;49.306;11.350;2022-12-07T07:03:53;228.70;;;220.10;;
595;SDS011;19946;49.306;11.350;2022-12-07T07:06:56;198.20;;;190.23;;
595;SDS011;19946;49.306;11.350;2022-12-07T07:09:57;208.43;;;200.20;;
595;SDS011;19946;49.306;11.350;2022-12-07T07:12:58;176.40;;;169.00;;
595;SDS011;19946;49.306;11.350;2022-12-07T07:15:59;195.63;;;187.73;;
595;SDS011;19946;49.306;11.350;2022-12-07T07:19:00;189.60;;;181.80;;
595;SDS011;19946;49.306;11.350;2022-12-07T07:22:02;191.67;;;183.87;;
595;SDS011;19946;49.306;11.350;2022-12-07T07:25:02;198.03;;;190.07;;
595;SDS011;19946;49.306;11.350;2022-12-07T07:28:04;193.93;;;185.93;;
595;SDS011;19946;49.306;11.350;2022-12-07T07:31:05;204.87;;;196.57;;
595;SDS011;19946;49.306;11.350;2022-12-07T07:34:05;225.70;;;216.93;;
595;SDS011;19946;49.306;11.350;2022-12-07T07:37:08;243.63;;;234.33;;
595;SDS011;19946;49.306;11.350;2022-12-07T07:40:09;204.03;;;195.93;;
595;SDS011;19946;49.306;11.350;2022-12-07T07:43:15;233.70;;;224.63;;
595;SDS011;19946;49.306;11.350;2022-12-07T07:46:15;256.67;;;246.77;;
595;SDS011;19946;49.306;11.350;2022-12-07T07:49:16;255.00;;;245.10;;
595;SDS011;19946;49.306;11.350;2022-12-07T07:52:16;270.70;;;260.20;;
595;SDS011;19946;49.306;11.350;2022-12-07T07:55:18;267.17;;;256.80;;
595;SDS011;19946;49.306;11.350;2022-12-07T07:58:19;306.40;;;294.80;;
595;SDS011;19946;49.306;11.350;2022-12-07T08:01:20;305.97;;;294.37;;
595;SDS011;19946;49.306;11.350;2022-12-07T08:04:21;313.40;;;301.50;;
595;SDS011;19946;49.306;11.350;2022-12-07T08:07:21;316.63;;;304.53;;
595;SDS011;19946;49.306;11.350;2022-12-07T08:10:22;303.47;;;291.67;;
595;SDS011;19946;49.306;11.350;2022-12-07T08:13:23;309.60;;;297.40;;
595;SDS011;19946;49.306;11.350;2022-12-07T08:16:24;327.13;;;314.30;;
595;SDS011;19946;49.306;11.350;2022-12-07T08:19:26;329.17;;;316.37;;
595;SDS011;19946;49.306;11.350;2022-12-07T08:22:29;346.70;;;333.20;;
595;SDS011;19946;49.306;11.350;2022-12-07T08:25:31;336.73;;;323.67;;
595;SDS011;19946;49.306;11.350;2022-12-07T08:28:31;354.57;;;341.03;;
595;SDS011;19946;49.306;11.350;2022-12-07T08:31:32;367.17;;;353.00;;
595;SDS011;19946;49.306;11.350;2022-12-07T08:34:33;357.07;;;343.37;;
595;SDS011;19946;49.306;11.350;2022-12-07T08:37:33;362.13;;;348.23;;
595;SDS011;19946;49.306;11.350;2022-12-07T08:40:34;375.07;;;360.50;;
595;SDS011;19946;49.306;11.350;2022-12-07T08:43:35;371.20;;;356.90;;
595;SDS011;19946;49.306;11.350;2022-12-07T08:46:37;358.10;;;344.10;;
595;SDS011;19946;49.306;11.350;2022-12-07T08:49:43;365.87;;;351.37;;
595;SDS011;19946;49.306;11.350;2022-12-07T08:52:48;297.80;;;286.00;;
595;SDS011;19946;49.306;11.350;2022-12-07T08:55:52;318.93;;;306.43;;
595;SDS011;19946;49.306;11.350;2022-12-07T08:58:53;346.37;;;332.83;;
595;SDS011;19946;49.306;11.350;2022-12-07T09:01:54;352.67;;;338.93;;
595;SDS011;19946;49.306;11.350;2022-12-07T09:04:55;307.47;;;295.17;;
595;SDS011;19946;49.306;11.350;2022-12-07T09:07:56;323.93;;;311.03;;
595;SDS011;19946;49.306;11.350;2022-12-07T09:11:00;262.23;;;251.47;;
595;SDS011;19946;49.306;11.350;2022-12-07T09:14:00;296.17;;;284.27;;
595;SDS011;19946;49.306;11.350;2022-12-07T09:17:07;257.40;;;246.80;;
595;SDS011;19946;49.306;11.350;2022-12-07T09:20:08;237.93;;;228.13;;
595;SDS011;19946;49.306;11.350;2022-12-07T09:23:09;249.23;;;239.03;;
595;SDS011;19946;49.306;11.350;2022-12-07T09:26:10;234.70;;;225.00;;
595;SDS011;19946;49.306;11.350;2022-12-07T09:29:10;239.30;;;229.50;;
595;SDS011;19946;49.306;11.350;2022-12-07T09:32:10;261.87;;;251.27;;
595;SDS011;19946;49.306;11.350;2022-12-07T09:35:11;255.90;;;245.53;;
595;SDS011;19946;49.306;11.350;2022-12-07T09:38:11;217.07;;;208.17;;
595;SDS011;19946;49.306;11.350;2022-12-07T09:41:12;243.90;;;234.10;;
595;SDS011;19946;49.306;11.350;2022-12-07T09:44:14;189.50;;;181.47;;
595;SDS011;19946;49.306;11.350;2022-12-07T09:47:23;177.00;;;169.60;;
595;SDS011;19946;49.306;11.350;2022-12-07T09:50:25;194.63;;;186.53;;
595;SDS011;19946;49.306;11.350;2022-12-07T09:53:32;194.50;;;186.30;;
595;SDS011;19946;49.306;11.350;2022-12-07T09:56:35;171.03;;;163.77;;
595;SDS011;19946;49.306;11.350;2022-12-07T09:59:36;160.20;;;153.30;;
595;SDS011;19946;49.306;11.350;2022-12-07T10:02:37;169.60;;;162.23;;
595;SDS011;19946;49.306;11.350;2022-12-07T10:05:43;208.83;;;200.20;;
595;SDS011;19946;49.306;11.350;2022-12-07T10:08:46;217.73;;;208.87;;
595;SDS011;19946;49.306;11.350;2022-12-07T10:15:11;218.80;;;209.63;;
595;SDS011;19946;49.306;11.350;2022-12-07T10:18:19;265.33;;;254.57;;
595;SDS011;19946;49.306;11.350;2022-12-07T10:21:22;229.23;;;219.77;;
595;SDS011;19946;49.306;11.350;2022-12-07T10:24:24;211.17;;;202.37;;
595;SDS011;19946;49.306;11.350;2022-12-07T10:27:30;215.13;;;206.10;;
595;SDS011;19946;49.306;11.350;2022-12-07T10:30:32;163.67;;;156.37;;
595;SDS011;19946;49.306;11.350;2022-12-07T10:33:38;269.23;;;258.10;;
595;SDS011;19946;49.306;11.350;2022-12-07T10:36:48;199.37;;;191.07;;
595;SDS011;19946;49.306;11.350;2022-12-07T10:39:50;189.03;;;180.93;;
595;SDS011;19946;49.306;11.350;2022-12-07T10:49:36;252.17;;;241.63;;
595;SDS011;19946;49.306;11.350;2022-12-07T10:52:50;255.60;;;244.80;;
595;SDS011;19946;49.306;11.350;2022-12-07T10:59:34;217.80;;;208.33;;
595;SDS011;19946;49.306;11.350;2022-12-07T11:03:18;215.93;;;206.50;;
595;SDS011;19946;49.306;11.350;2022-12-07T11:06:23;307.97;;;294.97;;
595;SDS011;19946;49.306;11.350;2022-12-07T11:16:06;254.40;;;243.50;;
595;SDS011;19946;49.306;11.350;2022-12-07T11:22:25;202.83;;;193.93;;
595;SDS011;19946;49.306;11.350;2022-12-07T11:25:37;271.50;;;260.13;;
595;SDS011;19946;49.306;11.350;2022-12-07T11:35:55;181.73;;;173.53;;
595;SDS011;19946;49.306;11.350;2022-12-07T11:38:58;205.67;;;196.60;;
595;SDS011;19946;49.306;11.350;2022-12-07T11:42:09;205.30;;;196.43;;
595;SDS011;19946;49.306;11.350;2022-12-07T11:45:17;166.07;;;158.47;;
595;SDS011;19946;49.306;11.350;2022-12-07T11:48:29;262.00;;;251.10;;
595;SDS011;19946;49.306;11.350;2022-12-07T11:51:35;155.53;;;148.47;;
595;SDS011;19946;49.306;11.350;2022-12-07T11:54:40;206.07;;;197.13;;
595;SDS011;19946;49.306;11.350;2022-12-07T11:57:44;252.70;;;242.10;;
595;SDS011;19946;49.306;11.350;2022-12-07T12:00:51;267.60;;;256.60;;
595;SDS011;19946;49.306;11.350;2022-12-07T12:07:11;195.40;;;186.73;;
595;SDS011;19946;49.306;11.350;2022-12-07T12:10:22;170.00;;;162.20;;
595;SDS011;19946;49.306;11.350;2022-12-07T12:13:43;227.90;;;218.10;;
595;SDS011;19946;49.306;11.350;2022-12-07T12:23:48;150.07;;;143.17;;
595;SDS011;19946;49.306;11.350;2022-12-07T12:27:05;142.90;;;136.20;;
595;SDS011;19946;49.306;11.350;2022-12-07T12:30:23;114.50;;;108.90;;
595;SDS011;19946;49.306;11.350;2022-12-07T12:33:28;111.70;;;106.30;;
595;SDS011;19946;49.306;11.350;2022-12-07T12:39:33;137.13;;;130.63;;
595;SDS011;19946;49.306;11.350;2022-12-07T12:42:43;166.07;;;158.33;;
595;SDS011;19946;49.306;11.350;2022-12-07T12:45:45;116.00;;;110.13;;
595;SDS011;19946;49.306;11.350;2022-12-07T12:48:45;221.83;;;212.17;;
595;SDS011;19946;49.306;11.350;2022-12-07T13:07:52;107.57;;;102.07;;
595;SDS011;19946;49.306;11.350;2022-12-07T13:10:55;83.70;;;79.10;;
595;SDS011;19946;49.306;11.350;2022-12-07T13:20:46;112.80;;;107.10;;
595;SDS011;19946;49.306;11.350;2022-12-07T13:23:55;130.10;;;123.60;;
595;SDS011;19946;49.306;11.350;2022-12-07T13:27:00;136.30;;;129.73;;
595;SDS011;19946;49.306;11.350;2022-12-07T13:30:01;216.03;;;206.50;;
595;SDS011;19946;49.306;11.350;2022-12-07T13:33:03;160.83;;;153.50;;
595;SDS011;19946;49.306;11.350;2022-12-07T13:36:04;250.60;;;240.17;;
595;SDS011;19946;49.306;11.350;2022-12-07T13:39:21;248.57;;;238.17;;
595;SDS011;19946;49.306;11.350;2022-12-07T13:45:33;172.07;;;164.23;;
595;SDS011;19946;49.306;11.350;2022-12-07T13:48:49;171.20;;;163.33;;
595;SDS011;19946;49.306;11.350;2022-12-07T13:51:50;166.23;;;158.60;;
595;SDS011;19946;49.306;11.350;2022-12-07T13:58:04;223.90;;;214.70;;
595;SDS011;19946;49.306;11.350;2022-12-07T14:01:05;224.30;;;215.00;;
595;SDS011;19946;49.306;11.350;2022-12-07T14:04:16;165.53;;;158.17;;
595;SDS011;19946;49.306;11.350;2022-12-07T14:07:19;173.93;;;166.07;;
595;SDS011;19946;49.306;11.350;2022-12-07T14:10:23;181.30;;;173.10;;
595;SDS011;19946;49.306;11.350;2022-12-07T14:13:31;190.07;;;181.30;;
595;SDS011;19946;49.306;11.350;2022-12-07T14:16:39;189.87;;;181.17;;
595;SDS011;19946;49.306;11.350;2022-12-07T14:19:47;212.57;;;203.37;;
595;SDS011;19946;49.306;11.350;2022-12-07T14:22:54;173.10;;;165.17;;
595;SDS011;19946;49.306;11.350;2022-12-07T14:26:04;158.90;;;151.40;;
595;SDS011;19946;49.306;11.350;2022-12-07T14:29:18;171.70;;;163.73;;
595;SDS011;19946;49.306;11.350;2022-12-07T14:32:26;195.17;;;186.37;;
595;SDS011;19946;49.306;11.350;2022-12-07T14:35:29;197.00;;;188.23;;
595;SDS011;19946;49.306;11.350;2022-12-07T14:38:31;167.47;;;159.53;;
595;SDS011;19946;49.306;11.350;2022-12-07T14:41:31;175.43;;;167.33;;
595;SDS011;19946;49.306;11.350;2022-12-07T14:44:50;121.87;;;115.80;;
595;SDS011;19946;49.306;11.350;2022-12-07T14:47:50;200.57;;;191.47;;
595;SDS011;19946;49.306;11.350;2022-12-07T14:50:52;249.40;;;238.67;;
595;SDS011;19946;49.306;11.350;2022-12-07T14:53:53;308.33;;;295.23;;
595;SDS011;19946;49.306;11.350;2022-12-07T14:56:54;269.83;;;258.47;;
595;SDS011;19946;49.306;11.350;2022-12-07T14:59:54;272.13;;;260.93;;
595;SDS011;19946;49.306;11.350;2022-12-07T15:02:55;329.83;;;316.80;;
595;SDS011;19946;49.306;11.350;2022-12-07T15:05:57;283.97;;;272.80;;
595;SDS011;19946;49.306;11.350;2022-12-07T15:08:57;269.33;;;258.43;;
595;SDS011;19946;49.306;11.350;2022-12-07T15:11:58;200.67;;;191.97;;
595;SDS011;19946;49.306;11.350;2022-12-07T15:14:59;299.70;;;287.40;;
595;SDS011;19946;49.306;11.350;2022-12-07T15:18:01;284.57;;;272.90;;
595;SDS011;19946;49.306;11.350;2022-12-07T15:21:03;262.43;;;251.77;;
595;SDS011;19946;49.306;11.350;2022-12-07T15:24:04;289.20;;;277.33;;
595;SDS011;19946;49.306;11.350;2022-12-07T15:27:04;284.80;;;273.07;;
595;SDS011;19946;49.306;11.350;2022-12-07T15:30:05;161.33;;;154.03;;
595;SDS011;19946;49.306;11.350;2022-12-07T15:33:06;168.07;;;160.53;;
595;SDS011;19946;49.306;11.350;2022-12-07T15:36:07;167.30;;;159.90;;
595;SDS011;19946;49.306;11.350;2022-12-07T15:39:08;189.97;;;181.67;;
595;SDS011;19946;49.306;11.350;2022-12-07T15:42:09;213.87;;;204.60;;
595;SDS011;19946;49.306;11.350;2022-12-07T15:45:10;325.53;;;311.93;;
595;SDS011;19946;49.306;11.350;2022-12-07T15:48:10;330.13;;;316.43;;
595;SDS011;19946;49.306;11.350;2022-12-07T15:51:12;369.17;;;354.30;;
595;SDS011;19946;49.306;11.350;2022-12-07T15:54:18;359.50;;;345.20;;
595;SDS011;19946;49.306;11.350;2022-12-07T15:57:37;354.53;;;340.57;;
595;SDS011;19946;49.306;11.350;2022-12-07T16:00:38;365.30;;;350.97;;
595;SDS011;19946;49.306;11.350;2022-12-07T16:03:39;375.17;;;360.77;;
595;SDS011;19946;49.306;11.350;2022-12-07T16:06:39;373.00;;;358.80;;
595;SDS011;19946;49.306;11.350;2022-12-07T16:09:41;378.90;;;364.47;;
595;SDS011;19946;49.306;11.350;2022-12-07T16:12:42;349.70;;;336.20;;
595;SDS011;19946;49.306;11.350;2022-12-07T16:15:42;363.93;;;349.97;;
595;SDS011;19946;49.306;11.350;2022-12-07T16:18:43;338.00;;;324.90;;
595;SDS011;19946;49.306;11.350;2022-12-07T16:21:45;316.83;;;304.63;;
595;SDS011;19946;49.306;11.350;2022-12-07T16:24:46;291.47;;;280.17;;
595;SDS011;19946;49.306;11.350;2022-12-07T16:27:46;293.63;;;282.13;;
595;SDS011;19946;49.306;11.350;2022-12-07T16:30:47;279.13;;;268.43;;
595;SDS011;19946;49.306;11.350;2022-12-07T16:33:47;229.57;;;220.47;;
595;SDS011;19946;49.306;11.350;2022-12-07T16:36:49;272.70;;;261.97;;
595;SDS011;19946;49.306;11.350;2022-12-07T16:39:49;254.40;;;244.23;;
595;SDS011;19946;49.306;11.350;2022-12-07T16:42:49;251.43;;;241.27;;
595;SDS011;19946;49.306;11.350;2022-12-07T16:45:50;195.60;;;187.30;;
595;SDS011;19946;49.306;11.350;2022-12-07T16:48:51;258.80;;;248.20;;
595;SDS011;19946;49.306;11.350;2022-12-07T16:51:51;255.13;;;244.73;;
595;SDS011;19946;49.306;11.350;2022-12-07T16:54:52;239.67;;;229.73;;
595;SDS011;19946;49.306;11.350;2022-12-07T16:57:53;289.50;;;277.70;;
595;SDS011;19946;49.306;11.350;2022-12-07T17:00:53;235.17;;;225.53;;
595;SDS011;19946;49.306;11.350;2022-12-07T17:03:54;229.90;;;220.47;;
595;SDS011;19946;49.306;11.350;2022-12-07T17:06:55;219.40;;;210.40;;
595;SDS011;19946;49.306;11.350;2022-12-07T17:09:56;262.33;;;251.57;;
595;SDS011;19946;49.306;11.350;2022-12-07T17:12:56;301.33;;;289.33;;
595;SDS011;19946;49.306;11.350;2022-12-07T17:16:01;333.63;;;320.63;;
595;SDS011;19946;49.306;11.350;2022-12-07T17:19:04;266.87;;;256.33;;
595;SDS011;19946;49.306;11.350;2022-12-07T17:22:06;259.17;;;248.93;;
595;SDS011;19946;49.306;11.350;2022-12-07T17:25:07;333.40;;;320.40;;
595;SDS011;19946;49.306;11.350;2022-12-07T17:28:08;263.80;;;253.40;;
595;SDS011;19946;49.306;11.350;2022-12-07T17:31:09;331.90;;;318.77;;
595;SDS011;19946;49.306;11.350;2022-12-07T17:34:11;318.00;;;305.50;;
595;SDS011;19946;49.306;11.350;2022-12-07T17:37:13;317.77;;;305.17;;
595;SDS011;19946;49.306;11.350;2022-12-07T17:40:14;332.90;;;319.70;;
595;SDS011;19946;49.306;11.350;2022-12-07T17:43:15;342.20;;;328.90;;
595;SDS011;19946;49.306;11.350;2022-12-07T17:46:15;277.47;;;266.47;;
595;SDS011;19946;49.306;11.350;2022-12-07T17:49:16;257.13;;;246.73;;
595;SDS011;19946;49.306;11.350;2022-12-07T17:52:16;267.70;;;256.70;;
595;SDS011;19946;49.306;11.350;2022-12-07T17:55:35;251.60;;;241.17;;
595;SDS011;19946;49.306;11.350;2022-12-07T17:58:36;265.13;;;254.13;;
595;SDS011;19946;49.306;11.350;2022-12-07T18:01:38;299.87;;;287.53;;
595;SDS011;19946;49.306;11.350;2022-12-07T18:04:39;316.27;;;303.20;;
595;SDS011;19946;49.306;11.350;2022-12-07T18:07:42;363.97;;;349.27;;
595;SDS011;19946;49.306;11.350;2022-12-07T18:10:42;323.90;;;310.80;;
595;SDS011;19946;49.306;11.350;2022-12-07T18:13:43;366.53;;;352.10;;
595;SDS011;19946;49.306;11.350;2022-12-07T18:16:43;389.23;;;374.23;;
595;SDS011;19946;49.306;11.350;2022-12-07T18:19:48;378.83;;;364.43;;
595;SDS011;19946;49.306;11.350;2022-12-07T18:22:48;358.60;;;344.90;;
595;SDS011;19946;49.306;11.350;2022-12-07T18:25:49;334.70;;;321.80;;
595;SDS011;19946;49.306;11.350;2022-12-07T18:28:50;341.80;;;328.80;;
595;SDS011;19946;49.306;11.350;2022-12-07T18:31:51;334.23;;;321.33;;
595;SDS011;19946;49.306;11.350;2022-12-07T18:34:53;321.30;;;308.90;;
595;SDS011;19946;49.306;11.350;2022-12-07T18:37:53;312.67;;;300.43;;
595;SDS011;19946;49.306;11.350;2022-12-07T18:40:53;298.50;;;286.70;;
595;SDS011;19946;49.306;11.350;2022-12-07T18:43:54;320.63;;;307.93;;
595;SDS011;19946;49.306;11.350;2022-12-07T18:46:54;297.57;;;285.67;;
595;SDS011;19946;49.306;11.350;2022-12-07T18:49:55;314.43;;;301.93;;
595;SDS011;19946;49.306;11.350;2022-12-07T18:52:56;312.20;;;299.97;;
595;SDS011;19946;49.306;11.350;2022-12-07T18:59:04;306.23;;;294.23;;
595;SDS011;19946;49.306;11.350;2022-12-07T19:02:23;263.03;;;252.50;;
595;SDS011;19946;49.306;11.350;2022-12-07T19:05:23;293.40;;;281.50;;
595;SDS011;19946;49.306;11.350;2022-12-07T19:08:24;291.53;;;279.90;;
595;SDS011;19946;49.306;11.350;2022-12-07T19:11:26;325.50;;;312.43;;
595;SDS011;19946;49.306;11.350;2022-12-07T19:14:47;282.93;;;271.47;;
595;SDS011;19946;49.306;11.350;2022-12-07T19:17:47;304.20;;;292.20;;
595;SDS011;19946;49.306;11.350;2022-12-07T19:20:47;318.17;;;305.53;;
595;SDS011;19946;49.306;11.350;2022-12-07T19:23:48;296.33;;;284.53;;